createdAt,value
2019-03-29T00:02:09.028Z,8.40
2019-03-29T00:04:36.627Z,7.80
2019-03-29T00:07:05.477Z,9.60
2019-03-29T00:09:50.907Z,9.40
2019-03-29T00:12:18.443Z,10.00
2019-03-29T00:14:46.406Z,9.20
2019-03-29T00:17:14.374Z,7.00
2019-03-29T00:19:41.901Z,6.40
2019-03-29T00:22:09.556Z,10.00
2019-03-29T00:24:37.438Z,9.80
2019-03-29T00:27:04.957Z,9.60
2019-03-29T00:29:32.443Z,9.80
2019-03-29T00:32:00.052Z,7.00
2019-03-29T00:34:27.822Z,11.60
2019-03-29T00:36:55.420Z,8.40
2019-03-29T00:39:22.948Z,8.60
2019-03-29T00:41:50.961Z,9.80
2019-03-29T00:44:18.796Z,8.00
2019-03-29T00:46:46.323Z,8.20
2019-03-29T00:49:16.017Z,5.60
2019-03-29T00:51:43.553Z,9.80
2019-03-29T00:54:11.419Z,4.40
2019-03-29T00:56:39.095Z,6.80
2019-03-29T00:59:06.650Z,9.60
2019-03-29T01:01:34.278Z,6.60
2019-03-29T01:04:02.973Z,5.40
2019-03-29T01:06:30.611Z,6.40
2019-03-29T01:08:58.178Z,6.80
2019-03-29T01:11:27.048Z,7.00
2019-03-29T01:13:54.558Z,7.00
2019-03-29T01:16:22.034Z,7.00
2019-03-29T01:18:51.673Z,7.00
2019-03-29T01:21:19.485Z,6.00
2019-03-29T01:23:48.226Z,6.60
2019-03-29T01:26:18.235Z,9.20
2019-03-29T01:28:48.930Z,8.20
2019-03-29T01:31:16.922Z,6.20
2019-03-29T01:33:44.527Z,7.40
2019-03-29T01:36:15.089Z,5.60
2019-03-29T01:38:42.993Z,8.60
2019-03-29T01:41:10.539Z,9.00
2019-03-29T01:43:38.516Z,3.40
2019-03-29T01:46:06.065Z,8.20
2019-03-29T01:48:33.959Z,7.00
2019-03-29T01:51:03.775Z,6.20
2019-03-29T01:53:31.391Z,7.40
2019-03-29T01:55:58.940Z,6.20
2019-03-29T01:58:26.811Z,6.40
2019-03-29T02:00:54.444Z,4.80
2019-03-29T02:03:22.605Z,6.60
2019-03-29T02:05:50.132Z,5.20
2019-03-29T02:08:18.027Z,6.60
2019-03-29T02:10:45.640Z,6.00
2019-03-29T02:13:13.263Z,9.80
2019-03-29T02:15:41.121Z,6.20
2019-03-29T02:18:08.626Z,9.00
2019-03-29T02:20:36.272Z,6.40
2019-03-29T02:23:04.138Z,6.20
2019-03-29T02:25:32.207Z,8.20
2019-03-29T02:27:59.819Z,7.80
2019-03-29T02:30:27.389Z,6.60
2019-03-29T02:32:55.234Z,6.00
2019-03-29T02:35:24.766Z,4.00
2019-03-29T02:37:52.379Z,5.20
2019-03-29T02:40:19.927Z,7.20
2019-03-29T02:42:47.827Z,9.20
2019-03-29T02:45:15.412Z,6.00
2019-03-29T02:47:43.023Z,6.00
2019-03-29T02:50:10.950Z,5.20
2019-03-29T02:52:38.947Z,8.60
2019-03-29T02:55:06.618Z,7.40
2019-03-29T02:57:34.460Z,9.00
2019-03-29T03:00:02.078Z,7.60
2019-03-29T03:02:29.540Z,13.20
2019-03-29T03:04:57.160Z,6.60
2019-03-29T03:07:24.772Z,4.00
2019-03-29T03:09:52.310Z,7.40
2019-03-29T03:12:19.840Z,7.00
2019-03-29T03:14:47.708Z,8.40
2019-03-29T03:17:15.405Z,6.00
2019-03-29T03:19:42.980Z,4.20
2019-03-29T03:22:12.815Z,7.20
2019-03-29T03:24:40.633Z,7.00
2019-03-29T03:27:08.182Z,6.00
2019-03-29T03:29:36.187Z,6.60
2019-03-29T03:32:03.780Z,7.80
2019-03-29T03:34:31.545Z,8.20
2019-03-29T03:37:02.495Z,6.00
2019-03-29T03:39:32.285Z,4.00
2019-03-29T03:41:59.311Z,9.00
2019-03-29T03:44:27.067Z,6.00
2019-03-29T03:46:54.649Z,6.60
2019-03-29T03:49:22.222Z,5.60
2019-03-29T03:51:49.788Z,6.40
2019-03-29T03:54:17.651Z,8.20
2019-03-29T03:56:45.268Z,6.00
2019-03-29T03:59:12.903Z,7.00
2019-03-29T04:01:40.452Z,6.80
2019-03-29T04:04:08.353Z,7.00
2019-03-29T04:06:35.956Z,6.40
2019-03-29T04:09:04.261Z,6.00
2019-03-29T04:11:32.126Z,5.80
2019-03-29T04:13:59.702Z,6.40
2019-03-29T04:16:27.641Z,6.40
2019-03-29T04:18:55.456Z,5.40
2019-03-29T04:21:23.010Z,6.00
2019-03-29T04:23:50.654Z,7.00
2019-03-29T04:26:18.183Z,5.60
2019-03-29T04:29:02.778Z,7.60
2019-03-29T04:31:15.256Z,5.80
2019-03-29T04:33:42.859Z,6.00
2019-03-29T04:36:10.485Z,6.20
2019-03-29T04:38:38.060Z,10.00
2019-03-29T04:41:05.675Z,6.40
2019-03-29T04:43:33.251Z,7.00
2019-03-29T04:46:01.049Z,8.60
2019-03-29T04:48:28.623Z,3.20
2019-03-29T04:50:56.158Z,9.00
2019-03-29T04:53:23.674Z,7.80
2019-03-29T04:55:51.480Z,7.80
2019-03-29T04:58:19.111Z,3.80
2019-03-29T05:00:46.647Z,7.00
2019-03-29T05:03:14.586Z,6.60
2019-03-29T05:05:42.409Z,7.20
2019-03-29T05:08:10.039Z,3.40
2019-03-29T05:10:37.593Z,4.60
2019-03-29T05:13:05.208Z,6.00
2019-03-29T05:15:33.114Z,5.20
2019-03-29T05:18:00.672Z,9.40
2019-03-29T05:20:28.239Z,4.00
2019-03-29T05:22:56.108Z,5.60
2019-03-29T05:25:23.659Z,4.60
2019-03-29T05:27:53.099Z,4.80
2019-03-29T05:30:20.945Z,6.80
2019-03-29T05:32:48.568Z,6.00
2019-03-29T05:35:16.245Z,6.20
2019-03-29T05:37:44.096Z,5.60
2019-03-29T05:40:11.910Z,6.20
2019-03-29T05:42:40.539Z,4.00
2019-03-29T05:45:08.489Z,5.80
2019-03-29T05:47:35.961Z,6.60
2019-03-29T05:50:03.419Z,6.20
2019-03-29T05:52:31.246Z,6.20
2019-03-29T05:54:58.795Z,6.20
2019-03-29T05:57:26.409Z,6.40
2019-03-29T05:59:54.639Z,1.80
2019-03-29T06:02:24.938Z,6.80
2019-03-29T06:04:52.478Z,1.00
2019-03-29T06:07:20.285Z,6.80
2019-03-29T06:09:47.901Z,4.00
2019-03-29T06:12:15.449Z,5.60
2019-03-29T06:14:43.744Z,6.00
2019-03-29T06:17:11.366Z,3.60
2019-03-29T06:19:38.936Z,6.20
2019-03-29T06:22:06.771Z,4.40
2019-03-29T06:24:34.301Z,3.40
2019-03-29T06:27:01.852Z,4.00
2019-03-29T06:29:36.990Z,6.00
2019-03-29T06:32:04.603Z,5.00
2019-03-29T06:34:32.125Z,4.80
2019-03-29T06:36:59.982Z,7.80
2019-03-29T06:39:27.544Z,4.00
2019-03-29T06:41:55.134Z,6.20
2019-03-29T06:44:24.834Z,9.20
2019-03-29T06:46:52.400Z,9.00
2019-03-29T06:49:19.927Z,6.00
2019-03-29T06:51:47.838Z,6.60
2019-03-29T06:54:15.404Z,9.80
2019-03-29T06:56:43.076Z,6.80
2019-03-29T06:59:10.913Z,7.40
2019-03-29T07:01:38.581Z,7.60
2019-03-29T07:04:06.136Z,8.80
2019-03-29T07:06:34.222Z,6.40
2019-03-29T07:09:01.785Z,8.60
2019-03-29T07:11:29.381Z,8.60
2019-03-29T07:13:58.141Z,10.80
2019-03-29T07:16:25.859Z,9.00
2019-03-29T07:18:53.511Z,6.20
2019-03-29T07:21:24.254Z,6.80
2019-03-29T07:23:51.883Z,8.60
2019-03-29T07:26:19.417Z,9.00
2019-03-29T07:28:47.244Z,9.80
2019-03-29T07:31:14.867Z,10.60
2019-03-29T07:33:42.474Z,7.00
2019-03-29T07:36:10.292Z,10.80
2019-03-29T07:38:37.785Z,7.40
2019-03-29T07:41:06.661Z,9.80
2019-03-29T07:43:41.605Z,10.00
2019-03-29T07:46:09.068Z,10.80
2019-03-29T07:48:40.212Z,8.20
2019-03-29T07:51:06.167Z,9.40
2019-03-29T07:53:34.129Z,7.40
2019-03-29T07:56:01.728Z,9.40
2019-03-29T07:58:31.591Z,10.40
2019-03-29T08:00:59.221Z,9.60
2019-03-29T08:03:26.765Z,6.80
2019-03-29T08:05:56.956Z,6.20
2019-03-29T08:08:31.849Z,7.40
2019-03-29T08:10:54.274Z,9.80
2019-03-29T08:13:22.191Z,9.00
2019-03-29T08:15:52.713Z,5.00
2019-03-29T08:18:22.140Z,6.80
2019-03-29T08:20:50.013Z,5.60
2019-03-29T08:23:17.578Z,6.40
2019-03-29T08:25:45.202Z,7.00
2019-03-29T08:28:13.027Z,7.00
2019-03-29T08:30:40.726Z,8.60
2019-03-29T08:33:08.356Z,7.80
2019-03-29T08:35:36.225Z,7.00
2019-03-29T08:38:06.126Z,8.20
2019-03-29T08:40:33.013Z,9.00
2019-03-29T08:43:01.054Z,5.20
2019-03-29T08:45:28.634Z,4.80
2019-03-29T08:47:56.334Z,9.60
2019-03-29T08:50:24.085Z,9.20
2019-03-29T08:52:51.576Z,7.80
2019-03-29T08:55:19.544Z,7.80
2019-03-29T08:57:51.515Z,6.80
2019-03-29T09:00:19.155Z,4.00
2019-03-29T09:02:46.792Z,4.80
2019-03-29T09:05:14.661Z,4.40
2019-03-29T09:07:45.475Z,3.00
2019-03-29T09:10:16.283Z,6.60
2019-03-29T09:12:42.526Z,5.20
2019-03-29T09:15:13.288Z,4.00
2019-03-29T09:17:41.167Z,3.00
2019-03-29T09:20:10.527Z,3.40
2019-03-29T09:22:38.332Z,3.00
2019-03-29T09:25:05.920Z,2.20
2019-03-29T09:27:33.759Z,3.80
2019-03-29T09:30:04.756Z,2.80
2019-03-29T09:32:30.648Z,4.00
2019-03-29T09:34:58.382Z,4.00
2019-03-29T09:37:25.940Z,1.00
2019-03-29T09:39:53.485Z,5.20
2019-03-29T09:42:28.878Z,3.00
2019-03-29T09:44:51.068Z,3.00
2019-03-29T09:47:20.319Z,2.20
2019-03-29T09:49:49.715Z,1.40
2019-03-29T09:52:17.281Z,1.00
2019-03-29T09:54:44.875Z,3.80
2019-03-29T09:57:15.611Z,3.00
2019-03-29T09:59:41.876Z,3.00
2019-03-29T10:02:12.052Z,1.00
2019-03-29T10:04:39.931Z,2.20
2019-03-29T10:07:07.483Z,2.40
2019-03-29T10:09:35.055Z,2.00
2019-03-29T10:12:13.155Z,3.20
2019-03-29T10:14:33.598Z,2.40
2019-03-29T10:17:01.283Z,2.80
2019-03-29T10:19:31.931Z,2.00
2019-03-29T10:21:59.494Z,3.20
2019-03-29T10:24:27.487Z,2.00
2019-03-29T10:26:58.189Z,3.80
2019-03-29T10:29:25.802Z,3.00
2019-03-29T10:31:53.706Z,3.40
2019-03-29T10:34:21.313Z,2.00
2019-03-29T10:36:50.907Z,4.20
2019-03-29T10:39:18.751Z,3.00
2019-03-29T10:41:46.233Z,3.60
2019-03-29T10:44:13.879Z,3.00
2019-03-29T10:46:41.769Z,3.60
2019-03-29T10:49:09.321Z,3.60
2019-03-29T10:51:36.995Z,2.40
2019-03-29T10:54:04.842Z,4.00
2019-03-29T10:56:34.450Z,4.00
2019-03-29T10:59:02.024Z,3.80
2019-03-29T11:01:29.895Z,3.00
2019-03-29T11:03:57.490Z,3.80
2019-03-29T11:06:26.112Z,3.00
2019-03-29T11:08:53.967Z,3.80
2019-03-29T11:11:21.525Z,3.00
2019-03-29T11:13:49.158Z,4.00
2019-03-29T11:16:17.018Z,4.20
2019-03-29T11:18:45.848Z,3.20
2019-03-29T11:21:13.540Z,4.60
2019-03-29T11:23:41.363Z,4.60
2019-03-29T11:26:08.891Z,4.00
2019-03-29T11:28:36.452Z,5.00
2019-03-29T11:31:04.293Z,3.80
2019-03-29T11:33:34.171Z,4.20
2019-03-29T11:36:02.015Z,5.20
2019-03-29T11:38:29.834Z,0.00
2019-03-29T11:40:57.469Z,4.00
2019-03-29T11:43:26.931Z,6.40
2019-03-29T11:45:54.547Z,5.00
2019-03-29T11:48:25.117Z,4.00
2019-03-29T11:50:52.747Z,4.00
2019-03-29T11:53:20.600Z,4.40
2019-03-29T11:55:48.233Z,4.40
2019-03-29T11:58:17.179Z,4.80
2019-03-29T12:00:46.521Z,5.00
2019-03-29T12:03:14.167Z,4.00
2019-03-29T12:05:47.354Z,4.80
2019-03-29T12:08:15.340Z,5.00
2019-03-29T12:10:42.955Z,6.00
2019-03-29T12:13:10.675Z,5.00
2019-03-29T12:15:38.412Z,4.80
2019-03-29T12:18:08.851Z,6.00
2019-03-29T12:20:36.390Z,4.80
2019-03-29T12:23:05.760Z,4.40
2019-03-29T12:25:33.286Z,5.00
2019-03-29T12:28:00.832Z,5.00
2019-03-29T12:30:32.581Z,5.00
2019-03-29T12:33:01.426Z,7.00
2019-03-29T12:35:28.958Z,6.20
2019-03-29T12:37:59.316Z,3.20
2019-03-29T12:40:29.921Z,5.00
2019-03-29T12:43:00.954Z,6.80
2019-03-29T12:45:28.799Z,5.40
2019-03-29T12:47:57.695Z,5.80
2019-03-29T12:50:25.361Z,5.60
2019-03-29T12:52:53.193Z,4.40
2019-03-29T12:55:20.719Z,7.20
2019-03-29T12:57:51.150Z,6.80
2019-03-29T13:00:26.732Z,5.00
2019-03-29T13:02:54.300Z,4.20
2019-03-29T13:05:21.981Z,7.40
2019-03-29T13:07:52.958Z,7.20
2019-03-29T13:10:21.904Z,6.60
2019-03-29T13:12:51.822Z,6.00
2019-03-29T13:15:19.281Z,7.00
2019-03-29T13:17:46.838Z,5.00
2019-03-29T13:20:14.507Z,3.00
2019-03-29T13:22:42.724Z,6.00
2019-03-29T13:25:10.296Z,3.00
2019-03-29T13:27:38.988Z,5.00
2019-03-29T13:30:06.854Z,4.80
2019-03-29T13:32:34.701Z,5.00
2019-03-29T13:35:02.305Z,6.00
2019-03-29T13:37:30.141Z,4.00
2019-03-29T13:40:00.033Z,9.00
2019-03-29T13:42:29.408Z,7.20
2019-03-29T13:44:57.284Z,5.20
2019-03-29T13:47:24.754Z,5.80
2019-03-29T13:49:55.455Z,5.40
2019-03-29T13:52:23.290Z,8.00
2019-03-29T13:54:56.323Z,7.00
2019-03-29T13:57:24.309Z,5.60
2019-03-29T13:59:53.415Z,7.00
2019-03-29T14:02:24.040Z,5.60
2019-03-29T14:04:51.625Z,5.80
2019-03-29T14:07:19.479Z,6.00
2019-03-29T14:09:47.112Z,5.20
2019-03-29T14:12:14.808Z,5.40
2019-03-29T14:14:42.650Z,5.20
2019-03-29T14:17:10.263Z,7.00
2019-03-29T14:19:42.018Z,6.20
2019-03-29T14:22:09.638Z,6.60
2019-03-29T14:24:37.173Z,7.40
2019-03-29T14:27:04.987Z,8.80
2019-03-29T14:29:32.590Z,8.20
2019-03-29T14:32:00.203Z,11.00
2019-03-29T14:34:28.107Z,8.00
2019-03-29T14:36:59.090Z,8.60
2019-03-29T14:39:25.070Z,8.00
2019-03-29T14:41:52.986Z,8.80
2019-03-29T14:44:20.584Z,6.40
2019-03-29T14:46:48.194Z,8.40
2019-03-29T14:49:21.903Z,9.00
2019-03-29T14:51:49.810Z,8.80
2019-03-29T14:54:17.462Z,8.00
2019-03-29T14:56:45.271Z,9.80
2019-03-29T14:59:12.933Z,8.00
2019-03-29T15:01:40.513Z,6.00
2019-03-29T15:04:08.408Z,9.20
2019-03-29T15:06:37.232Z,7.20
2019-03-29T15:09:07.651Z,7.20
2019-03-29T15:11:36.725Z,10.20
2019-03-29T15:14:05.841Z,9.40
2019-03-29T15:16:33.369Z,7.40
2019-03-29T15:19:01.246Z,7.20
2019-03-29T15:21:28.820Z,7.00
2019-03-29T15:23:56.442Z,7.20
2019-03-29T15:26:28.050Z,7.20
2019-03-29T15:28:56.461Z,7.40
2019-03-29T15:31:27.479Z,6.80
2019-03-29T15:34:04.822Z,7.40
2019-03-29T15:36:32.353Z,7.80
2019-03-29T15:38:59.992Z,10.00
2019-03-29T15:41:29.070Z,9.80
2019-03-29T15:43:56.668Z,9.00
2019-03-29T15:46:28.406Z,9.80
2019-03-29T15:48:59.254Z,8.60
2019-03-29T15:51:33.180Z,7.00
2019-03-29T15:54:07.170Z,7.00
2019-03-29T15:56:37.227Z,7.00
2019-03-29T15:59:07.149Z,10.00
2019-03-29T16:01:35.220Z,7.80
2019-03-29T16:04:02.873Z,8.20
2019-03-29T16:06:30.759Z,6.80
2019-03-29T16:08:58.689Z,8.00
2019-03-29T16:11:29.567Z,9.00
2019-03-29T16:13:57.156Z,6.20
2019-03-29T16:16:27.484Z,7.20
2019-03-29T16:18:55.412Z,7.60
2019-03-29T16:21:23.067Z,9.00
2019-03-29T16:23:51.005Z,7.20
2019-03-29T16:26:22.127Z,7.20
2019-03-29T16:28:50.704Z,7.80
2019-03-29T16:31:18.345Z,9.60
2019-03-29T16:33:45.929Z,10.40
2019-03-29T16:36:13.879Z,7.60
2019-03-29T16:38:41.519Z,11.60
2019-03-29T16:41:15.384Z,9.00
2019-03-29T16:43:43.212Z,9.00
2019-03-29T16:46:10.939Z,7.20
2019-03-29T16:48:38.830Z,7.40
2019-03-29T16:51:10.419Z,6.00
2019-03-29T16:53:39.806Z,7.80
2019-03-29T16:56:07.541Z,10.00
2019-03-29T16:58:35.442Z,6.60
2019-03-29T17:01:10.293Z,9.80
2019-03-29T17:03:38.141Z,8.00
2019-03-29T17:06:05.741Z,6.60
2019-03-29T17:08:33.279Z,8.60
2019-03-29T17:11:01.114Z,8.60
2019-03-29T17:13:28.643Z,9.00
2019-03-29T17:16:02.152Z,7.80
2019-03-29T17:18:29.738Z,9.40
2019-03-29T17:20:57.534Z,10.40
2019-03-29T17:23:28.351Z,7.40
2019-03-29T17:25:56.357Z,5.60
2019-03-29T17:28:23.898Z,9.20
2019-03-29T17:30:57.259Z,12.00
2019-03-29T17:33:25.183Z,10.00
2019-03-29T17:35:55.884Z,10.00
2019-03-29T17:38:23.607Z,9.00
2019-03-29T17:40:53.290Z,12.00
2019-03-29T17:43:20.884Z,9.40
2019-03-29T17:45:55.784Z,9.00
2019-03-29T17:48:26.682Z,12.00
2019-03-29T17:50:54.249Z,9.00
2019-03-29T17:53:21.883Z,7.40
2019-03-29T17:55:49.730Z,8.40
2019-03-29T17:58:17.384Z,9.00
2019-03-29T18:00:45.380Z,8.20
2019-03-29T18:03:13.335Z,12.00
2019-03-29T18:05:40.944Z,9.40
2019-03-29T18:08:08.581Z,10.40
2019-03-29T18:10:36.472Z,10.40
2019-03-29T18:13:04.140Z,11.60
2019-03-29T18:15:48.911Z,9.80
2019-03-29T18:18:40.250Z,8.20
2019-03-29T18:20:52.053Z,9.60
2019-03-29T18:23:24.963Z,16.00
2019-03-29T18:25:52.344Z,15.60
2019-03-29T18:28:22.940Z,18.00
2019-03-29T18:30:52.991Z,25.80
2019-03-29T18:33:20.900Z,23.00
2019-03-29T18:35:51.327Z,19.20
2019-03-29T18:38:19.238Z,22.80
2019-03-29T18:40:47.118Z,25.00
2019-03-29T18:43:31.984Z,19.80
2019-03-29T18:45:59.652Z,12.00
2019-03-29T18:48:27.643Z,12.40
2019-03-29T18:50:55.270Z,9.00
2019-03-29T18:53:22.852Z,9.00
2019-03-29T18:55:54.619Z,13.00
2019-03-29T18:58:24.100Z,14.20
2019-03-29T19:00:51.701Z,13.80
2019-03-29T19:03:19.596Z,9.80
2019-03-29T19:05:48.115Z,12.20
2019-03-29T19:08:15.728Z,11.20
2019-03-29T19:10:45.856Z,11.60
2019-03-29T19:13:13.791Z,12.00
2019-03-29T19:15:41.373Z,9.20
2019-03-29T19:18:09.216Z,10.00
2019-03-29T19:20:36.788Z,11.60
2019-03-29T19:23:09.421Z,10.40
2019-03-29T19:25:37.388Z,12.00
2019-03-29T19:28:07.925Z,11.80
2019-03-29T19:30:38.602Z,10.00
2019-03-29T19:33:06.167Z,11.20
2019-03-29T19:35:41.052Z,12.80
2019-03-29T19:38:08.954Z,13.00
2019-03-29T19:40:36.560Z,10.00
2019-03-29T19:43:06.504Z,12.20
2019-03-29T19:45:34.668Z,11.20
2019-03-29T19:48:22.390Z,10.40
2019-03-29T19:50:55.486Z,11.80
2019-03-29T19:53:34.444Z,11.60
2019-03-29T19:56:04.235Z,9.20
2019-03-29T19:58:35.228Z,10.80
2019-03-29T20:01:11.729Z,12.40
2019-03-29T20:03:46.624Z,10.80
2019-03-29T20:06:14.480Z,12.80
2019-03-29T20:08:42.119Z,12.20
2019-03-29T20:11:17.068Z,12.20
2019-03-29T20:13:47.731Z,13.00
2019-03-29T20:16:15.367Z,13.80
2019-03-29T20:18:48.972Z,14.20
2019-03-29T20:21:16.812Z,14.20
2019-03-29T20:23:45.631Z,10.40
2019-03-29T20:26:13.131Z,9.80
2019-03-29T20:28:44.087Z,10.40
2019-03-29T20:31:11.714Z,12.00
2019-03-29T20:33:39.290Z,12.00
2019-03-29T20:36:07.118Z,13.00
2019-03-29T20:38:34.745Z,10.80
2019-03-29T20:41:02.457Z,12.60
2019-03-29T20:43:30.296Z,19.60
2019-03-29T20:46:01.028Z,31.60
2019-03-29T20:48:28.627Z,14.20
2019-03-29T20:50:56.548Z,11.60
2019-03-29T20:53:37.302Z,11.00
2019-03-29T20:56:07.849Z,7.00
2019-03-29T20:58:37.137Z,10.00
2019-03-29T21:01:07.202Z,6.60
2019-03-29T21:03:35.127Z,6.80
2019-03-29T21:06:02.808Z,9.00
2019-03-29T21:08:30.446Z,9.00
2019-03-29T21:11:02.414Z,9.20
2019-03-29T21:13:30.005Z,7.80
2019-03-29T21:15:57.579Z,9.60
2019-03-29T21:18:25.136Z,10.00
2019-03-29T21:20:55.296Z,9.60
2019-03-29T21:23:23.114Z,10.00
2019-03-29T21:26:10.700Z,10.80
2019-03-29T21:28:47.647Z,9.20
2019-03-29T21:31:16.256Z,9.80
2019-03-29T21:33:43.859Z,11.80
2019-03-29T21:36:17.930Z,12.20
2019-03-29T21:38:46.936Z,14.20
2019-03-29T21:41:14.805Z,19.60
2019-03-29T21:43:42.387Z,11.60
2019-03-29T21:46:09.963Z,17.20
2019-03-29T21:48:39.905Z,18.60
2019-03-29T21:51:07.507Z,17.00
2019-03-29T21:53:35.340Z,13.20
2019-03-29T21:56:03.171Z,12.00
2019-03-29T21:58:30.644Z,10.80
2019-03-29T22:00:58.589Z,10.20
2019-03-29T22:03:26.527Z,12.40
2019-03-29T22:05:54.130Z,11.40
2019-03-29T22:08:22.654Z,12.60
2019-03-29T22:10:50.200Z,10.00
2019-03-29T22:13:17.838Z,12.00
2019-03-29T22:15:45.663Z,10.00
2019-03-29T22:18:14.669Z,10.20
2019-03-29T22:20:42.215Z,9.40
2019-03-29T22:23:14.198Z,8.20
2019-03-29T22:25:41.767Z,8.60
2019-03-29T22:28:09.326Z,8.40
2019-03-29T22:30:45.975Z,9.60
2019-03-29T22:33:13.988Z,6.80
2019-03-29T22:35:41.531Z,11.60
2019-03-29T22:38:09.306Z,10.00
2019-03-29T22:40:37.261Z,13.00
2019-03-29T22:43:07.725Z,5.40
2019-03-29T22:45:35.587Z,12.00
2019-03-29T22:48:07.322Z,9.20
2019-03-29T22:50:36.296Z,9.00
2019-03-29T22:53:04.083Z,9.20
2019-03-29T22:55:31.671Z,7.40
2019-03-29T22:57:59.187Z,8.20
2019-03-29T23:00:28.711Z,6.20
2019-03-29T23:02:57.609Z,9.60
2019-03-29T23:05:26.539Z,5.80
2019-03-29T23:07:55.746Z,6.00
2019-03-29T23:10:23.300Z,6.00
2019-03-29T23:12:50.901Z,3.20
2019-03-29T23:15:18.518Z,4.40
2019-03-29T23:17:46.353Z,5.60
2019-03-29T23:20:13.940Z,3.40
2019-03-29T23:22:41.508Z,4.40
2019-03-29T23:25:11.427Z,3.60
2019-03-29T23:27:41.765Z,6.20
2019-03-29T23:30:09.390Z,4.00
2019-03-29T23:32:37.233Z,4.00
2019-03-29T23:35:04.844Z,4.40
2019-03-29T23:37:32.438Z,4.40
2019-03-29T23:40:04.959Z,4.00
2019-03-29T23:42:32.586Z,6.00
2019-03-29T23:45:03.154Z,5.60
2019-03-29T23:47:31.008Z,7.00
2019-03-29T23:49:58.544Z,3.00
2019-03-29T23:52:26.003Z,4.40
2019-03-29T23:54:53.576Z,4.40
2019-03-29T23:57:21.434Z,4.80
2019-03-29T23:59:48.921Z,4.00
